Time;durP1;ratioP1;P1;durP2;ratioP2;P2;SDS_P1;SDS_P2;PMS_P1;PMS_P2;Temp;Humidity;BMP_temperature;BMP_pressure;BME280_temperature;BME280_humidity;BME280_pressure;Samples;Min_cycle;Max_cycle;Signal;HPM_P1;HPM_P2
2022/12/03 00:02:12;;;;;;;53.38;28.58;;;;;;;;;;5097338;28;20212;-60
2022/12/03 00:04:39;;;;;;;56.67;31.83;;;;;;;;;;5097505;28;20191;-59
2022/12/03 00:07:06;;;;;;;64.15;31.55;;;;;;;;;;5097106;28;20220;-60
2022/12/03 00:09:35;;;;;;;50.85;29.52;;;;;;;;;;5096806;28;20648;-60
2022/12/03 00:12:02;;;;;;;60.38;32.53;;;;;;;;;;5097338;28;20200;-60
2022/12/03 00:14:29;;;;;;;52.03;29.83;;;;;;;;;;5097125;28;20238;-60
2022/12/03 00:16:56;;;;;;;54.03;29.88;;;;;;;;;;5096930;28;20244;-59
2022/12/03 00:19:23;;;;;;;55.83;30.15;;;;;;;;;;5096420;28;20188;-60
2022/12/03 00:21:50;;;;;;;56.65;29.25;;;;;;;;;;5095963;28;20220;-60
2022/12/03 00:24:17;;;;;;;59.72;31.10;;;;;;;;;;5096349;28;20213;-60
2022/12/03 00:26:46;;;;;;;59.88;32.30;;;;;;;;;;5096273;28;20197;-60
2022/12/03 00:29:14;;;;;;;56.80;28.35;;;;;;;;;;5096185;28;20284;-61
2022/12/03 00:31:42;;;;;;;55.53;30.75;;;;;;;;;;5096320;28;20641;-59
2022/12/03 00:34:09;;;;;;;55.33;31.02;;;;;;;;;;5095628;28;20200;-60
2022/12/03 00:36:36;;;;;;;54.53;30.55;;;;;;;;;;5096129;28;20599;-60
2022/12/03 00:39:04;;;;;;;55.15;30.10;;;;;;;;;;5095993;28;20193;-60
2022/12/03 00:41:31;;;;;;;55.15;28.30;;;;;;;;;;5095911;28;20217;-59
2022/12/03 00:44:00;;;;;;;61.63;29.08;;;;;;;;;;5096248;28;20200;-59
2022/12/03 00:46:27;;;;;;;50.53;29.67;;;;;;;;;;5096027;28;20284;-60
2022/12/03 00:48:54;;;;;;;53.25;29.80;;;;;;;;;;5096200;28;20257;-59
2022/12/03 00:51:21;;;;;;;54.20;29.25;;;;;;;;;;5096048;28;20689;-59
2022/12/03 00:53:48;;;;;;;47.78;28.00;;;;;;;;;;5095494;28;20281;-59
2022/12/03 00:56:16;;;;;;;50.08;28.58;;;;;;;;;;5095262;28;20193;-60
2022/12/03 00:58:43;;;;;;;54.65;29.15;;;;;;;;;;5095211;28;20197;-59
2022/12/03 01:01:12;;;;;;;51.40;28.52;;;;;;;;;;5095285;28;20229;-59
2022/12/03 01:03:39;;;;;;;45.92;27.70;;;;;;;;;;5095610;28;20193;-60
2022/12/03 01:06:06;;;;;;;49.72;29.60;;;;;;;;;;5095765;28;20212;-59
2022/12/03 01:08:33;;;;;;;50.22;29.27;;;;;;;;;;5095768;28;20189;-60
2022/12/03 01:11:00;;;;;;;53.15;28.75;;;;;;;;;;5095633;28;20205;-60
2022/12/03 01:13:27;;;;;;;50.67;28.90;;;;;;;;;;5095730;28;20197;-59
2022/12/03 01:15:55;;;;;;;47.72;28.00;;;;;;;;;;5095860;28;20198;-59
2022/12/03 01:18:23;;;;;;;49.97;29.75;;;;;;;;;;5095228;28;20189;-60
2022/12/03 01:20:50;;;;;;;50.20;29.45;;;;;;;;;;5095616;28;20205;-59
2022/12/03 01:23:18;;;;;;;50.42;29.67;;;;;;;;;;5094942;28;20238;-59
2022/12/03 01:25:45;;;;;;;48.53;30.38;;;;;;;;;;5095794;28;20188;-59
2022/12/03 01:28:12;;;;;;;42.42;27.95;;;;;;;;;;5095428;28;20223;-60
2022/12/03 01:33:20;;;;;;;49.30;28.02;;;;;;;;;;5095120;28;20185;-59
2022/12/03 01:35:49;;;;;;;48.33;29.55;;;;;;;;;;5094576;28;20186;-59
2022/12/03 01:38:16;;;;;;;48.03;28.63;;;;;;;;;;5095346;28;20189;-59
2022/12/03 01:40:43;;;;;;;43.28;27.17;;;;;;;;;;5094736;28;20189;-59
2022/12/03 01:43:10;;;;;;;50.80;31.00;;;;;;;;;;5095410;28;20193;-58
2022/12/03 01:45:37;;;;;;;47.35;28.48;;;;;;;;;;5095114;28;20221;-59
2022/12/03 01:48:05;;;;;;;47.38;29.50;;;;;;;;;;5095056;28;20267;-59
2022/12/03 01:50:33;;;;;;;52.60;30.73;;;;;;;;;;5094981;28;20227;-60
2022/12/03 01:53:03;;;;;;;44.20;28.67;;;;;;;;;;5094894;28;20223;-60
2022/12/03 01:55:31;;;;;;;42.65;27.05;;;;;;;;;;5095128;28;20701;-59
2022/12/03 01:57:59;;;;;;;49.17;30.13;;;;;;;;;;5095467;28;20197;-59
2022/12/03 02:00:27;;;;;;;50.33;29.15;;;;;;;;;;5095308;28;20200;-59
2022/12/03 02:02:55;;;;;;;48.40;29.23;;;;;;;;;;5095095;28;20220;-62
2022/12/03 02:05:25;;;;;;;48.38;28.48;;;;;;;;;;5094741;28;20185;-59
2022/12/03 02:07:52;;;;;;;49.88;31.13;;;;;;;;;;5094222;28;20189;-60
2022/12/03 02:10:22;;;;;;;50.97;29.38;;;;;;;;;;5094014;28;20199;-59
2022/12/03 02:12:51;;;;;;;50.95;30.15;;;;;;;;;;5094140;28;20624;-59
2022/12/03 02:15:18;;;;;;;48.47;28.33;;;;;;;;;;5094137;28;20189;-59
2022/12/03 02:17:45;;;;;;;48.03;28.05;;;;;;;;;;5094903;28;20189;-59
2022/12/03 02:20:13;;;;;;;50.20;30.50;;;;;;;;;;5094550;28;20552;-59
2022/12/03 02:22:46;;;;;;;50.45;28.20;;;;;;;;;;5094127;28;20223;-59
2022/12/03 02:25:16;;;;;;;44.30;28.33;;;;;;;;;;5094551;28;20724;-59
2022/12/03 02:27:43;;;;;;;49.88;29.00;;;;;;;;;;5094458;28;20204;-60
2022/12/03 02:30:11;;;;;;;45.25;28.60;;;;;;;;;;5094598;28;20209;-59
2022/12/03 02:32:38;;;;;;;43.63;25.10;;;;;;;;;;5094616;28;20196;-60
2022/12/03 02:35:06;;;;;;;46.08;28.33;;;;;;;;;;5094376;28;20189;-59
2022/12/03 02:37:35;;;;;;;43.63;27.60;;;;;;;;;;5094725;28;20636;-60
2022/12/03 02:40:04;;;;;;;46.25;27.70;;;;;;;;;;5094655;28;20201;-59
2022/12/03 02:42:34;;;;;;;52.05;27.25;;;;;;;;;;5093968;28;20716;-59
2022/12/03 02:45:03;;;;;;;48.45;27.95;;;;;;;;;;5094105;28;20193;-59
2022/12/03 02:47:31;;;;;;;46.15;26.58;;;;;;;;;;5096544;28;20306;-59
2022/12/03 02:49:58;;;;;;;49.83;28.17;;;;;;;;;;5098352;28;20197;-60
2022/12/03 02:52:26;;;;;;;46.72;27.42;;;;;;;;;;5098192;28;20599;-60
2022/12/03 02:54:55;;;;;;;47.67;26.83;;;;;;;;;;5098205;28;20196;-59
2022/12/03 02:57:23;;;;;;;49.05;28.42;;;;;;;;;;5097968;28;20667;-59
2022/12/03 02:59:51;;;;;;;48.55;27.13;;;;;;;;;;5097912;28;20189;-59
2022/12/03 03:02:19;;;;;;;45.97;27.67;;;;;;;;;;5097986;28;20216;-59
2022/12/03 03:04:46;;;;;;;49.63;27.02;;;;;;;;;;5097761;28;20199;-59
2022/12/03 03:07:13;;;;;;;43.83;27.67;;;;;;;;;;5097930;28;20574;-59
2022/12/03 03:09:41;;;;;;;46.00;27.98;;;;;;;;;;5097698;28;20193;-59
2022/12/03 03:12:08;;;;;;;52.58;27.50;;;;;;;;;;5097880;28;20194;-59
2022/12/03 03:14:36;;;;;;;46.55;27.98;;;;;;;;;;5097977;28;20239;-59
2022/12/03 03:17:04;;;;;;;54.75;28.65;;;;;;;;;;5097935;28;20569;-59
2022/12/03 03:19:31;;;;;;;52.10;28.60;;;;;;;;;;5097707;28;20222;-59
2022/12/03 03:21:59;;;;;;;49.53;26.30;;;;;;;;;;5097960;28;20258;-59
2022/12/03 03:24:26;;;;;;;44.90;27.25;;;;;;;;;;5097169;28;20193;-60
2022/12/03 03:26:53;;;;;;;55.63;28.40;;;;;;;;;;5097098;28;20199;-59
2022/12/03 03:29:21;;;;;;;51.70;29.88;;;;;;;;;;5097175;28;20192;-59
2022/12/03 03:31:48;;;;;;;42.75;25.50;;;;;;;;;;5097020;28;20189;-60
2022/12/03 03:34:18;;;;;;;52.92;26.60;;;;;;;;;;5097303;28;20235;-59
2022/12/03 03:36:46;;;;;;;49.05;28.35;;;;;;;;;;5096833;28;20189;-59
2022/12/03 03:39:13;;;;;;;51.00;28.48;;;;;;;;;;5097020;28;20199;-60
2022/12/03 03:41:41;;;;;;;49.35;29.27;;;;;;;;;;5097014;28;20213;-59
2022/12/03 03:44:09;;;;;;;51.85;29.25;;;;;;;;;;5097241;28;20196;-59
2022/12/03 03:46:37;;;;;;;49.17;26.88;;;;;;;;;;5096708;28;20185;-59
2022/12/03 03:49:05;;;;;;;42.83;25.63;;;;;;;;;;5096772;28;20220;-59
2022/12/03 03:51:34;;;;;;;47.50;27.67;;;;;;;;;;5096822;28;20198;-59
2022/12/03 03:54:03;;;;;;;45.28;27.20;;;;;;;;;;5096825;28;20647;-59
2022/12/03 03:56:30;;;;;;;51.53;28.50;;;;;;;;;;5097002;28;20185;-59
2022/12/03 03:58:57;;;;;;;52.20;28.92;;;;;;;;;;5096842;28;20193;-59
2022/12/03 04:01:25;;;;;;;54.47;29.70;;;;;;;;;;5097093;28;20227;-59
2022/12/03 04:03:52;;;;;;;48.00;27.02;;;;;;;;;;5096964;28;20197;-59
2022/12/03 04:06:19;;;;;;;55.88;30.98;;;;;;;;;;5097031;28;20189;-59
2022/12/03 04:08:48;;;;;;;44.95;27.05;;;;;;;;;;5097232;28;20286;-59
2022/12/03 04:13:59;;;;;;;51.17;28.00;;;;;;;;;;5096808;28;20188;-59
2022/12/03 04:16:27;;;;;;;50.08;29.10;;;;;;;;;;5096974;28;20185;-59
2022/12/03 04:18:54;;;;;;;46.40;27.52;;;;;;;;;;5096889;28;20203;-59
2022/12/03 04:24:10;;;;;;;49.50;29.35;;;;;;;;;;5096935;28;20725;-59
2022/12/03 04:29:22;;;;;;;47.58;29.90;;;;;;;;;;5096365;28;20262;-59
2022/12/03 04:37:15;;;;;;;49.28;28.67;;;;;;;;;;5096389;28;20195;-59
2022/12/03 04:39:44;;;;;;;50.00;30.40;;;;;;;;;;5096394;28;20196;-59
2022/12/03 04:42:11;;;;;;;56.03;30.40;;;;;;;;;;5096089;28;20321;-58
2022/12/03 04:44:38;;;;;;;48.65;29.15;;;;;;;;;;5096444;28;20276;-59
2022/12/03 04:47:07;;;;;;;51.70;28.23;;;;;;;;;;5096019;28;20587;-58
2022/12/03 04:49:34;;;;;;;46.85;28.48;;;;;;;;;;5095722;28;20195;-59
2022/12/03 04:52:01;;;;;;;49.35;30.02;;;;;;;;;;5095670;28;20193;-60
2022/12/03 04:54:29;;;;;;;48.33;29.60;;;;;;;;;;5095855;28;20189;-59
2022/12/03 04:56:57;;;;;;;53.63;30.27;;;;;;;;;;5095703;28;20184;-58
2022/12/03 04:59:24;;;;;;;44.35;28.33;;;;;;;;;;5095427;28;20204;-61
2022/12/03 05:01:51;;;;;;;51.92;27.52;;;;;;;;;;5095184;28;20255;-59
2022/12/03 05:04:18;;;;;;;50.13;29.15;;;;;;;;;;5095498;28;20279;-59
2022/12/03 05:06:46;;;;;;;49.40;29.42;;;;;;;;;;5095476;28;20555;-61
2022/12/03 05:09:13;;;;;;;49.53;29.15;;;;;;;;;;5094186;28;20190;-61
2022/12/03 05:11:41;;;;;;;55.45;29.90;;;;;;;;;;5095379;28;20667;-61
2022/12/03 05:14:10;;;;;;;46.63;30.80;;;;;;;;;;5095071;28;20189;-61
2022/12/03 05:16:37;;;;;;;54.63;30.38;;;;;;;;;;5094825;28;20227;-61
2022/12/03 05:19:05;;;;;;;61.03;30.13;;;;;;;;;;5095570;28;20510;-58
2022/12/03 05:21:31;;;;;;;51.22;29.88;;;;;;;;;;5095368;28;20220;-60
2022/12/03 05:23:58;;;;;;;50.63;30.70;;;;;;;;;;5095016;28;20645;-61
2022/12/03 05:26:26;;;;;;;47.97;28.88;;;;;;;;;;5094939;28;20193;-60
2022/12/03 05:28:53;;;;;;;50.47;29.38;;;;;;;;;;5094945;28;20193;-59
2022/12/03 05:31:22;;;;;;;54.75;29.95;;;;;;;;;;5095117;28;20218;-57
2022/12/03 05:33:49;;;;;;;54.80;30.42;;;;;;;;;;5095681;28;20578;-58
2022/12/03 05:36:16;;;;;;;45.97;29.92;;;;;;;;;;5095144;28;20189;-61
2022/12/03 05:38:43;;;;;;;52.63;30.30;;;;;;;;;;5094691;28;20192;-60
2022/12/03 05:43:51;;;;;;;53.33;30.80;;;;;;;;;;5094328;28;20344;-61
2022/12/03 05:46:18;;;;;;;54.88;31.52;;;;;;;;;;5094784;28;20545;-61
2022/12/03 05:48:49;;;;;;;57.55;33.13;;;;;;;;;;5094596;28;20560;-61
2022/12/03 05:51:16;;;;;;;49.20;31.70;;;;;;;;;;5094524;28;20192;-58
2022/12/03 05:53:44;;;;;;;50.28;29.05;;;;;;;;;;5094429;28;20193;-59
2022/12/03 05:56:11;;;;;;;54.88;32.15;;;;;;;;;;5094376;28;20197;-59
2022/12/03 05:58:39;;;;;;;60.30;31.40;;;;;;;;;;5094342;28;20284;-59
2022/12/03 06:01:06;;;;;;;61.30;29.65;;;;;;;;;;5094438;28;20713;-58
2022/12/03 06:03:33;;;;;;;56.92;33.53;;;;;;;;;;5095169;28;20295;-57
2022/12/03 06:06:01;;;;;;;56.08;32.10;;;;;;;;;;5095044;28;20313;-58
2022/12/03 06:08:29;;;;;;;57.65;31.88;;;;;;;;;;5094737;28;20199;-58
2022/12/03 06:10:56;;;;;;;56.22;30.77;;;;;;;;;;5094464;28;20200;-58
2022/12/03 06:13:23;;;;;;;57.65;32.58;;;;;;;;;;5094911;28;20193;-58
2022/12/03 06:15:50;;;;;;;64.28;32.40;;;;;;;;;;5094295;28;20470;-58
2022/12/03 06:18:17;;;;;;;63.47;32.58;;;;;;;;;;5094573;28;20200;-58
2022/12/03 06:20:44;;;;;;;60.30;33.15;;;;;;;;;;5094256;28;20192;-58
2022/12/03 06:23:13;;;;;;;52.38;30.65;;;;;;;;;;5094164;28;20683;-58
2022/12/03 06:25:41;;;;;;;58.20;33.42;;;;;;;;;;5093741;28;20250;-58
2022/12/03 06:28:08;;;;;;;60.92;32.97;;;;;;;;;;5093961;28;20185;-61
2022/12/03 06:30:35;;;;;;;52.17;32.08;;;;;;;;;;5093606;28;20189;-60
2022/12/03 06:33:02;;;;;;;55.75;30.70;;;;;;;;;;5094318;28;20185;-58
2022/12/03 06:35:29;;;;;;;54.15;30.40;;;;;;;;;;5093856;28;20189;-58
2022/12/03 06:37:57;;;;;;;61.60;32.20;;;;;;;;;;5094476;28;20195;-58
2022/12/03 06:40:25;;;;;;;58.53;32.35;;;;;;;;;;5094159;28;20250;-58
2022/12/03 06:42:52;;;;;;;54.08;33.25;;;;;;;;;;5094291;28;20691;-58
2022/12/03 06:45:19;;;;;;;62.25;33.28;;;;;;;;;;5094086;28;20202;-58
2022/12/03 06:47:46;;;;;;;59.92;33.08;;;;;;;;;;5093971;28;20266;-58
2022/12/03 06:50:14;;;;;;;64.50;31.05;;;;;;;;;;5094177;28;20606;-59
2022/12/03 06:52:41;;;;;;;60.97;32.95;;;;;;;;;;5094098;28;20192;-58
2022/12/03 06:55:09;;;;;;;62.60;32.47;;;;;;;;;;5094269;28;20393;-61
2022/12/03 06:57:38;;;;;;;56.53;32.45;;;;;;;;;;5094369;28;20197;-58
2022/12/03 07:00:09;;;;;;;59.00;31.20;;;;;;;;;;5094572;28;20651;-58
2022/12/03 07:02:36;;;;;;;54.03;31.88;;;;;;;;;;5094461;28;20208;-58
2022/12/03 07:05:05;;;;;;;58.35;33.35;;;;;;;;;;5094391;28;20553;-58
2022/12/03 07:07:32;;;;;;;52.88;30.33;;;;;;;;;;5094165;28;20189;-58
2022/12/03 07:10:01;;;;;;;56.13;32.60;;;;;;;;;;5094694;28;20189;-58
2022/12/03 07:12:28;;;;;;;61.10;31.52;;;;;;;;;;5094037;28;20188;-61
2022/12/03 07:14:57;;;;;;;58.05;33.78;;;;;;;;;;5093946;28;20197;-58
2022/12/03 07:17:24;;;;;;;56.13;31.40;;;;;;;;;;5093992;28;20190;-59
2022/12/03 07:19:51;;;;;;;60.67;33.38;;;;;;;;;;5094496;28;20197;-58
2022/12/03 07:22:18;;;;;;;58.17;32.00;;;;;;;;;;5093452;28;20652;-59
2022/12/03 07:24:46;;;;;;;59.42;31.63;;;;;;;;;;5093811;28;20559;-59
2022/12/03 07:27:13;;;;;;;59.20;32.47;;;;;;;;;;5093710;28;20189;-59
2022/12/03 07:29:40;;;;;;;51.15;32.08;;;;;;;;;;5093660;28;20586;-59
2022/12/03 07:32:08;;;;;;;58.38;30.98;;;;;;;;;;5093771;28;20275;-58
2022/12/03 07:34:36;;;;;;;57.67;31.98;;;;;;;;;;5097424;28;20208;-59
2022/12/03 07:37:03;;;;;;;53.33;30.63;;;;;;;;;;5097685;28;20696;-59
2022/12/03 07:39:30;;;;;;;61.20;32.88;;;;;;;;;;5097574;28;20235;-59
2022/12/03 07:41:57;;;;;;;60.00;31.67;;;;;;;;;;5097528;28;20197;-58
2022/12/03 07:44:24;;;;;;;51.75;31.70;;;;;;;;;;5097750;28;20220;-59
2022/12/03 07:46:51;;;;;;;54.15;32.90;;;;;;;;;;5096706;28;20225;-59
2022/12/03 07:49:20;;;;;;;53.80;31.83;;;;;;;;;;5097304;28;20189;-58
2022/12/03 07:51:52;;;;;;;61.13;32.92;;;;;;;;;;5097738;28;20189;-59
2022/12/03 07:54:19;;;;;;;50.55;29.65;;;;;;;;;;5097422;28;20215;-59
2022/12/03 07:56:47;;;;;;;58.55;31.30;;;;;;;;;;5097358;28;20216;-59
2022/12/03 07:59:14;;;;;;;59.45;30.70;;;;;;;;;;5097324;28;20284;-59
2022/12/03 08:01:42;;;;;;;57.85;31.83;;;;;;;;;;5097338;28;20600;-59
2022/12/03 08:04:11;;;;;;;49.63;29.70;;;;;;;;;;5097068;28;20273;-59
2022/12/03 08:06:40;;;;;;;55.30;31.25;;;;;;;;;;5097049;28;20191;-59
2022/12/03 08:09:07;;;;;;;54.40;31.92;;;;;;;;;;5096516;28;20675;-58
2022/12/03 08:11:34;;;;;;;57.63;32.95;;;;;;;;;;5097070;28;20194;-61
2022/12/03 08:14:01;;;;;;;57.38;29.95;;;;;;;;;;5096959;28;20197;-58
2022/12/03 08:16:31;;;;;;;70.90;33.28;;;;;;;;;;5097232;28;20216;-59
2022/12/03 08:18:58;;;;;;;59.38;32.08;;;;;;;;;;5096528;28;20191;-58
2022/12/03 08:21:25;;;;;;;58.03;31.27;;;;;;;;;;5096537;28;20236;-58
2022/12/03 08:23:54;;;;;;;64.10;31.95;;;;;;;;;;5096165;28;20249;-60
2022/12/03 08:26:23;;;;;;;50.17;29.90;;;;;;;;;;5096047;28;20242;-60
2022/12/03 08:28:50;;;;;;;61.22;33.65;;;;;;;;;;5096765;28;20227;-60
2022/12/03 08:31:18;;;;;;;52.20;29.85;;;;;;;;;;5096443;28;20302;-60
2022/12/03 08:33:46;;;;;;;56.53;30.40;;;;;;;;;;5096459;28;20276;-59
2022/12/03 08:36:15;;;;;;;59.15;30.30;;;;;;;;;;5096622;28;20197;-60
2022/12/03 08:38:43;;;;;;;60.22;30.40;;;;;;;;;;5095825;28;20188;-60
2022/12/03 08:41:15;;;;;;;60.53;29.20;;;;;;;;;;5096560;28;20529;-60
2022/12/03 08:43:42;;;;;;;55.88;30.10;;;;;;;;;;5095867;28;20225;-60
2022/12/03 08:46:12;;;;;;;60.42;31.70;;;;;;;;;;5096357;28;20189;-59
2022/12/03 08:48:39;;;;;;;57.38;31.52;;;;;;;;;;5095688;28;20618;-60
2022/12/03 08:51:12;;;;;;;56.95;29.65;;;;;;;;;;5095808;28;20283;-60
2022/12/03 08:53:44;;;;;;;65.05;31.90;;;;;;;;;;5095969;28;20184;-60
2022/12/03 08:56:19;;;;;;;56.17;30.05;;;;;;;;;;5095751;28;20197;-59
2022/12/03 08:58:47;;;;;;;55.20;28.00;;;;;;;;;;5096296;28;20220;-60
2022/12/03 09:01:27;;;;;;;60.88;31.38;;;;;;;;;;5096006;28;20695;-59
2022/12/03 09:03:54;;;;;;;59.28;31.83;;;;;;;;;;5096138;28;20575;-60
2022/12/03 09:06:22;;;;;;;58.10;29.88;;;;;;;;;;5096077;28;20192;-60
2022/12/03 09:08:49;;;;;;;54.20;30.77;;;;;;;;;;5095784;28;20201;-59
2022/12/03 09:11:20;;;;;;;56.45;30.45;;;;;;;;;;5095638;28;20192;-59
2022/12/03 09:13:48;;;;;;;55.70;32.00;;;;;;;;;;5095574;28;20201;-60
2022/12/03 09:16:15;;;;;;;58.95;29.75;;;;;;;;;;5095648;28;20189;-60
2022/12/03 09:18:43;;;;;;;59.97;31.60;;;;;;;;;;5096234;28;20228;-59
2022/12/03 09:21:10;;;;;;;55.45;29.27;;;;;;;;;;5095710;28;20197;-60
2022/12/03 09:23:38;;;;;;;55.47;28.60;;;;;;;;;;5095494;28;20220;-59
2022/12/03 09:26:05;;;;;;;54.90;30.50;;;;;;;;;;5095742;28;20251;-60
2022/12/03 09:28:33;;;;;;;49.40;31.08;;;;;;;;;;5095035;28;20579;-60
2022/12/03 09:31:00;;;;;;;60.55;29.50;;;;;;;;;;5095241;28;20279;-59
2022/12/03 09:33:31;;;;;;;56.65;29.40;;;;;;;;;;5095284;28;20208;-59
2022/12/03 09:35:58;;;;;;;55.40;28.80;;;;;;;;;;5095365;28;20601;-59
2022/12/03 09:38:25;;;;;;;55.95;29.90;;;;;;;;;;5094980;28;20213;-60
2022/12/03 09:40:52;;;;;;;58.05;29.98;;;;;;;;;;5094749;28;20193;-59
2022/12/03 09:43:19;;;;;;;56.92;30.08;;;;;;;;;;5094688;28;20213;-60
2022/12/03 09:45:48;;;;;;;50.05;27.55;;;;;;;;;;5094890;28;20725;-58
2022/12/03 09:48:16;;;;;;;55.55;28.95;;;;;;;;;;5094280;28;20556;-60
2022/12/03 09:50:44;;;;;;;60.53;31.20;;;;;;;;;;5094522;28;20195;-58
2022/12/03 09:53:27;;;;;;;60.45;30.35;;;;;;;;;;5060627;28;20189;-59
2022/12/03 09:55:54;;;;;;;59.58;28.75;;;;;;;;;;5093673;28;20193;-60
2022/12/03 09:58:22;;;;;;;57.88;29.85;;;;;;;;;;5094461;28;20602;-60
2022/12/03 10:00:52;;;;;;;62.67;31.98;;;;;;;;;;5094341;28;20189;-59
2022/12/03 10:03:20;;;;;;;54.80;29.13;;;;;;;;;;5094688;28;20705;-60
2022/12/03 10:05:47;;;;;;;59.88;30.15;;;;;;;;;;5094431;28;20189;-59
2022/12/03 10:08:17;;;;;;;66.30;30.75;;;;;;;;;;5093895;28;20632;-60
2022/12/03 10:10:45;;;;;;;66.85;31.90;;;;;;;;;;5093926;28;20192;-59
2022/12/03 10:13:14;;;;;;;64.93;32.00;;;;;;;;;;5094234;28;20193;-59
2022/12/03 10:15:41;;;;;;;60.85;31.00;;;;;;;;;;5094172;28;20210;-59
2022/12/03 10:18:16;;;;;;;59.17;30.55;;;;;;;;;;5093888;28;20196;-59
2022/12/03 10:20:43;;;;;;;63.72;28.75;;;;;;;;;;5093872;28;20284;-59
2022/12/03 10:23:10;;;;;;;53.58;28.38;;;;;;;;;;5093852;28;20185;-58
2022/12/03 10:25:49;;;;;;;59.65;30.10;;;;;;;;;;5094164;28;20195;-59
2022/12/03 10:28:27;;;;;;;57.35;29.92;;;;;;;;;;5093791;28;20188;-58
2022/12/03 10:30:55;;;;;;;65.30;30.00;;;;;;;;;;5093852;28;20192;-56
2022/12/03 10:33:29;;;;;;;67.15;29.92;;;;;;;;;;5093640;28;20652;-63
2022/12/03 10:35:56;;;;;;;59.95;29.63;;;;;;;;;;5093749;28;20229;-60
2022/12/03 10:38:24;;;;;;;60.88;28.75;;;;;;;;;;5093597;28;20214;-59
2022/12/03 10:40:51;;;;;;;58.63;29.90;;;;;;;;;;5093730;28;20189;-59
2022/12/03 10:43:22;;;;;;;59.38;29.27;;;;;;;;;;5093287;28;20189;-58
2022/12/03 10:45:49;;;;;;;57.03;27.52;;;;;;;;;;5093351;28;20196;-58
2022/12/03 10:48:18;;;;;;;61.28;28.35;;;;;;;;;;5093478;28;20229;-59
2022/12/03 10:50:50;;;;;;;61.30;28.70;;;;;;;;;;5093392;28;20305;-59
2022/12/03 10:53:18;;;;;;;65.00;30.08;;;;;;;;;;5093675;28;20753;-58
2022/12/03 10:55:45;;;;;;;60.28;27.77;;;;;;;;;;5093408;28;20242;-59
2022/12/03 10:58:17;;;;;;;55.42;26.10;;;;;;;;;;5093364;28;20197;-60
2022/12/03 11:00:44;;;;;;;57.97;27.48;;;;;;;;;;5093578;28;20192;-60
2022/12/03 11:03:17;;;;;;;60.05;27.90;;;;;;;;;;5093639;28;20648;-59
2022/12/03 11:05:44;;;;;;;56.17;25.80;;;;;;;;;;5093367;28;20317;-59
2022/12/03 11:08:17;;;;;;;57.40;27.23;;;;;;;;;;5095158;28;20243;-59
2022/12/03 11:10:44;;;;;;;52.45;26.20;;;;;;;;;;5097500;28;20189;-59
2022/12/03 11:13:44;;;;;;;46.00;26.00;;;;;;;;;;5097460;28;20194;-58
2022/12/03 11:16:11;;;;;;;53.78;25.52;;;;;;;;;;5097405;28;20193;-61
2022/12/03 11:18:58;;;;;;;47.65;27.00;;;;;;;;;;5097654;28;20292;-59
2022/12/03 11:21:25;;;;;;;58.55;26.40;;;;;;;;;;5097277;28;20189;-59
2022/12/03 11:24:11;;;;;;;56.65;26.58;;;;;;;;;;5097343;28;20266;-59
2022/12/03 11:26:57;;;;;;;56.30;26.65;;;;;;;;;;5097254;28;20189;-58
2022/12/03 11:29:39;;;;;;;50.58;25.45;;;;;;;;;;5097451;28;20231;-58
2022/12/03 11:32:08;;;;;;;55.85;25.20;;;;;;;;;;5096819;28;20193;-59
2022/12/03 11:34:44;;;;;;;54.40;26.92;;;;;;;;;;5096908;28;20247;-59
2022/12/03 11:37:25;;;;;;;53.03;26.83;;;;;;;;;;5097363;28;20199;-59
2022/12/03 11:40:02;;;;;;;48.03;26.95;;;;;;;;;;5097073;28;20192;-61
2022/12/03 11:42:31;;;;;;;48.67;25.58;;;;;;;;;;5097232;28;20200;-58
2022/12/03 11:45:17;;;;;;;51.80;26.13;;;;;;;;;;5095758;28;20616;-59
2022/12/03 11:47:47;;;;;;;53.70;27.10;;;;;;;;;;5096762;28;20228;-59
2022/12/03 11:50:21;;;;;;;48.95;26.73;;;;;;;;;;5097022;28;20195;-59
2022/12/03 11:52:50;;;;;;;51.60;25.10;;;;;;;;;;5097034;28;20541;-58
2022/12/03 11:55:20;;;;;;;49.60;24.02;;;;;;;;;;5096771;28;20235;-58
2022/12/03 11:57:47;;;;;;;53.17;25.65;;;;;;;;;;5096748;28;20199;-60
2022/12/03 12:00:19;;;;;;;56.65;27.10;;;;;;;;;;5096523;28;20194;-58
2022/12/03 12:02:48;;;;;;;55.85;25.98;;;;;;;;;;5096602;28;20193;-57
2022/12/03 12:05:27;;;;;;;48.05;24.92;;;;;;;;;;5096442;28;20702;-58
2022/12/03 12:07:54;;;;;;;60.72;28.98;;;;;;;;;;5096702;28;20228;-57
2022/12/03 12:10:38;;;;;;;47.33;25.05;;;;;;;;;;5096407;28;20232;-58
2022/12/03 12:13:06;;;;;;;57.10;29.60;;;;;;;;;;5096334;28;20184;-59
2022/12/03 12:15:34;;;;;;;54.53;26.05;;;;;;;;;;5096351;28;20200;-59
2022/12/03 12:18:16;;;;;;;49.67;25.98;;;;;;;;;;5095965;28;20228;-61
2022/12/03 12:20:44;;;;;;;58.63;27.05;;;;;;;;;;5096024;28;20258;-59
2022/12/03 12:23:22;;;;;;;54.17;24.27;;;;;;;;;;5096654;28;20200;-60
2022/12/03 12:25:49;;;;;;;52.65;25.98;;;;;;;;;;5096158;28;20223;-60
2022/12/03 12:28:16;;;;;;;47.60;24.25;;;;;;;;;;5096053;28;20198;-58
2022/12/03 12:30:43;;;;;;;52.63;27.25;;;;;;;;;;5096359;28;20186;-59
2022/12/03 12:33:18;;;;;;;48.78;25.60;;;;;;;;;;5096259;28;20243;-60
2022/12/03 12:35:47;;;;;;;61.85;27.48;;;;;;;;;;5096050;28;20192;-59
2022/12/03 12:38:16;;;;;;;50.40;25.27;;;;;;;;;;5095792;28;20660;-59
2022/12/03 12:40:45;;;;;;;53.85;25.98;;;;;;;;;;5095622;28;20197;-59
2022/12/03 12:43:18;;;;;;;49.03;25.98;;;;;;;;;;5096118;28;20224;-57
2022/12/03 12:45:45;;;;;;;46.00;25.10;;;;;;;;;;5095573;28;20217;-59
2022/12/03 12:48:17;;;;;;;57.38;25.75;;;;;;;;;;5095331;28;20632;-59
2022/12/03 12:50:45;;;;;;;56.42;27.67;;;;;;;;;;5095636;28;20189;-59
2022/12/03 12:53:17;;;;;;;51.13;26.38;;;;;;;;;;5095783;28;20547;-59
2022/12/03 12:55:44;;;;;;;57.42;26.67;;;;;;;;;;5095618;28;20282;-61
2022/12/03 12:58:14;;;;;;;51.33;24.80;;;;;;;;;;5095442;28;20189;-60
2022/12/03 13:00:41;;;;;;;47.30;25.75;;;;;;;;;;5095332;28;20195;-60
2022/12/03 13:03:08;;;;;;;57.88;27.50;;;;;;;;;;5095020;28;20193;-59
2022/12/03 13:05:38;;;;;;;54.92;26.38;;;;;;;;;;5095620;28;20248;-59
2022/12/03 13:08:17;;;;;;;63.28;30.80;;;;;;;;;;5095088;28;20198;-60
2022/12/03 13:10:46;;;;;;;49.00;26.45;;;;;;;;;;5095171;28;20675;-59
2022/12/03 13:13:20;;;;;;;58.33;26.55;;;;;;;;;;5095225;28;20641;-60
2022/12/03 13:15:58;;;;;;;60.22;28.95;;;;;;;;;;5094972;28;20253;-60
2022/12/03 13:18:27;;;;;;;47.50;26.00;;;;;;;;;;5094965;28;20189;-59
2022/12/03 13:20:54;;;;;;;51.40;25.67;;;;;;;;;;5095161;28;20185;-59
2022/12/03 13:23:30;;;;;;;54.63;24.65;;;;;;;;;;5094955;28;20189;-61
2022/12/03 13:26:00;;;;;;;55.38;27.23;;;;;;;;;;5094921;28;20216;-59
2022/12/03 13:28:29;;;;;;;51.05;26.35;;;;;;;;;;5094832;28;20200;-59
2022/12/03 13:30:57;;;;;;;47.00;25.48;;;;;;;;;;5094356;28;20198;-61
2022/12/03 13:33:26;;;;;;;56.85;25.80;;;;;;;;;;5094652;28;20193;-59
2022/12/03 13:35:53;;;;;;;44.75;25.60;;;;;;;;;;5094726;28;20193;-60
2022/12/03 13:38:22;;;;;;;50.78;25.70;;;;;;;;;;5094615;28;20645;-58
2022/12/03 13:40:54;;;;;;;51.35;28.00;;;;;;;;;;5094619;28;20185;-61
2022/12/03 13:43:23;;;;;;;52.38;25.65;;;;;;;;;;5094641;28;20190;-60
2022/12/03 13:45:52;;;;;;;53.03;27.20;;;;;;;;;;5094471;28;20231;-60
2022/12/03 13:48:22;;;;;;;51.45;26.75;;;;;;;;;;5094367;28;20772;-59
2022/12/03 13:50:49;;;;;;;50.97;25.48;;;;;;;;;;5094517;28;20192;-59
2022/12/03 13:53:20;;;;;;;47.92;26.00;;;;;;;;;;5094315;28;20653;-59
2022/12/03 13:55:48;;;;;;;44.15;24.83;;;;;;;;;;5094258;28;20636;-58
2022/12/03 13:58:15;;;;;;;49.45;25.33;;;;;;;;;;5094383;28;20246;-59
2022/12/03 14:00:44;;;;;;;52.53;23.88;;;;;;;;;;5094038;28;20192;-59
2022/12/03 14:03:11;;;;;;;51.75;25.58;;;;;;;;;;5094314;28;20193;-59
2022/12/03 14:05:38;;;;;;;50.95;25.63;;;;;;;;;;5094250;28;20311;-60
2022/12/03 14:08:06;;;;;;;53.95;27.38;;;;;;;;;;5094122;28;20186;-58
2022/12/03 14:10:33;;;;;;;51.92;26.80;;;;;;;;;;5094140;28;20190;-59
2022/12/03 14:13:01;;;;;;;43.92;25.75;;;;;;;;;;5094185;28;20200;-59
2022/12/03 14:15:28;;;;;;;49.22;25.67;;;;;;;;;;5094543;28;20733;-59
2022/12/03 14:17:57;;;;;;;49.60;26.48;;;;;;;;;;5094194;28;20277;-59
2022/12/03 14:20:25;;;;;;;53.67;24.17;;;;;;;;;;5094214;28;20197;-61
2022/12/03 14:22:52;;;;;;;52.03;26.70;;;;;;;;;;5094268;28;20553;-59
2022/12/03 14:25:19;;;;;;;48.83;26.42;;;;;;;;;;5093942;28;20212;-59
2022/12/03 14:27:47;;;;;;;44.17;25.20;;;;;;;;;;5093982;28;20663;-60
2022/12/03 14:30:15;;;;;;;47.58;24.67;;;;;;;;;;5094019;28;20185;-59
2022/12/03 14:32:42;;;;;;;57.20;25.50;;;;;;;;;;5093826;28;20256;-60
2022/12/03 14:35:10;;;;;;;56.30;27.15;;;;;;;;;;5094304;28;20185;-60
2022/12/03 14:37:38;;;;;;;50.00;25.50;;;;;;;;;;5093770;28;20188;-59
2022/12/03 14:40:07;;;;;;;49.58;25.88;;;;;;;;;;5093804;28;20271;-60
2022/12/03 14:42:35;;;;;;;49.95;25.80;;;;;;;;;;5093869;28;20644;-57
2022/12/03 14:45:02;;;;;;;56.45;28.70;;;;;;;;;;5093630;28;20675;-59